Time;durP1;ratioP1;P1;durP2;ratioP2;P2;SDS_P1;SDS_P2;PMS_P1;PMS_P2;Temp;Humidity;BMP_temperature;BMP_pressure;BME280_temperature;BME280_humidity;BME280_pressure;Samples;Min_cycle;Max_cycle;Signal;HPM_P1;HPM_P2
2021/12/08 00:00:17;;;;;;;10.95;4.28;;;2.40;99.90;;;;;;5057575;28;20079;-52
2021/12/08 00:02:44;;;;;;;16.67;4.32;;;2.40;99.90;;;;;;5059471;28;20120;-53
2021/12/08 00:05:12;;;;;;;10.40;4.22;;;2.40;99.90;;;;;;5057511;28;20055;-53
2021/12/08 00:07:38;;;;;;;13.75;4.53;;;2.40;99.90;;;;;;5059107;28;20497;-52
2021/12/08 00:10:50;;;;;;;9.50;4.13;;;2.40;99.90;;;;;;5058679;28;20047;-52
2021/12/08 00:13:07;;;;;;;9.65;4.07;;;2.40;99.90;;;;;;5058469;28;20045;-53
2021/12/08 00:15:54;;;;;;;10.85;4.00;;;2.50;99.90;;;;;;5059229;28;20430;-53
2021/12/08 00:18:23;;;;;;;11.23;4.50;;;2.50;99.90;;;;;;5058436;28;20037;-53
2021/12/08 00:20:52;;;;;;;13.95;5.97;;;2.50;99.90;;;;;;5058691;28;20084;-52
2021/12/08 00:23:18;;;;;;;11.85;4.30;;;2.50;99.90;;;;;;5059145;28;20052;-50
2021/12/08 00:25:44;;;;;;;12.07;4.30;;;2.50;99.90;;;;;;5058592;28;20432;-51
2021/12/08 00:28:12;;;;;;;9.85;4.50;;;2.50;99.90;;;;;;5059167;28;20047;-54
2021/12/08 00:30:40;;;;;;;12.70;4.43;;;2.50;99.90;;;;;;5058435;28;20506;-49
2021/12/08 00:33:07;;;;;;;15.43;5.07;;;2.50;99.90;;;;;;5059095;28;20128;-52
2021/12/08 00:35:34;;;;;;;8.80;4.40;;;2.50;99.90;;;;;;5058183;28;20056;-52
2021/12/08 00:38:00;;;;;;;11.30;4.75;;;2.60;99.90;;;;;;5058592;28;20037;-53
2021/12/08 00:40:27;;;;;;;10.07;4.63;;;2.60;99.90;;;;;;5058800;28;20370;-51
2021/12/08 00:42:54;;;;;;;9.75;4.43;;;2.60;99.90;;;;;;5057748;28;20616;-52
2021/12/08 00:45:21;;;;;;;12.90;4.60;;;2.60;99.90;;;;;;5058554;28;20433;-49
2021/12/08 00:47:48;;;;;;;12.05;4.90;;;2.60;99.90;;;;;;5058239;28;20107;-53
2021/12/08 00:50:16;;;;;;;12.23;5.70;;;2.60;99.90;;;;;;5058453;28;20578;-51
2021/12/08 00:52:43;;;;;;;12.57;4.45;;;2.70;99.90;;;;;;5095470;28;20047;-50
2021/12/08 00:55:12;;;;;;;12.00;5.10;;;2.60;99.90;;;;;;5098645;28;20075;-50
2021/12/08 00:57:38;;;;;;;15.95;4.85;;;2.60;99.90;;;;;;5098782;28;20560;-51
2021/12/08 01:00:08;;;;;;;9.00;4.68;;;2.70;99.90;;;;;;5098374;28;20095;-53
2021/12/08 01:02:38;;;;;;;14.65;5.97;;;2.70;99.90;;;;;;5099079;28;20087;-51
2021/12/08 01:05:09;;;;;;;12.82;5.25;;;2.70;99.90;;;;;;5098253;28;20036;-52
2021/12/08 01:07:35;;;;;;;11.45;4.80;;;2.70;99.90;;;;;;5098539;28;20044;-51
2021/12/08 01:10:03;;;;;;;10.23;4.72;;;2.80;99.90;;;;;;5098206;28;20094;-52
2021/12/08 01:12:29;;;;;;;12.60;4.85;;;2.80;99.90;;;;;;5098345;28;20435;-49
2021/12/08 01:14:54;;;;;;;11.00;5.95;;;2.80;99.90;;;;;;5098705;28;20044;-49
2021/12/08 01:17:20;;;;;;;12.23;4.50;;;2.80;99.90;;;;;;5098180;28;20490;-51
2021/12/08 01:19:46;;;;;;;10.57;5.35;;;2.80;99.90;;;;;;5098919;28;20079;-52
2021/12/08 01:22:12;;;;;;;12.35;5.60;;;2.80;99.90;;;;;;5098088;28;20051;-48
2021/12/08 01:24:37;;;;;;;18.75;5.38;;;2.90;99.90;;;;;;5098521;28;20063;-51
2021/12/08 01:27:03;;;;;;;9.70;5.15;;;2.90;99.90;;;;;;5097809;28;20053;-51
2021/12/08 01:29:29;;;;;;;13.25;4.80;;;3.00;99.90;;;;;;5098523;28;20032;-51
2021/12/08 01:31:54;;;;;;;14.05;6.22;;;3.00;99.90;;;;;;5098346;28;20127;-49
2021/12/08 01:34:21;;;;;;;11.48;4.93;;;2.90;99.90;;;;;;5098218;28;20055;-51
2021/12/08 01:36:46;;;;;;;16.40;5.07;;;3.00;99.90;;;;;;5098475;28;20043;-53
2021/12/08 01:39:12;;;;;;;14.73;5.68;;;3.00;99.90;;;;;;5097806;28;20052;-53
2021/12/08 01:41:39;;;;;;;13.98;7.45;;;3.00;99.90;;;;;;5098473;28;20068;-51
2021/12/08 01:46:52;;;;;;;12.85;5.13;;;3.00;99.90;;;;;;5098350;28;20058;-52
2021/12/08 01:49:19;;;;;;;11.43;5.05;;;3.00;99.90;;;;;;5098624;28;20104;-51
2021/12/08 01:51:45;;;;;;;13.20;5.63;;;3.10;99.90;;;;;;5086919;28;20404;-51
2021/12/08 01:54:11;;;;;;;13.68;4.72;;;3.10;99.90;;;;;;5078349;28;20044;-53
2021/12/08 01:56:38;;;;;;;11.45;5.35;;;3.00;99.90;;;;;;5081286;28;20040;-52
2021/12/08 01:59:06;;;;;;;13.45;6.40;;;3.10;99.90;;;;;;5080657;28;20830;-50
2021/12/08 02:01:35;;;;;;;13.10;5.88;;;3.10;99.90;;;;;;5081479;28;20090;-53
2021/12/08 02:04:04;;;;;;;13.25;5.95;;;3.10;99.90;;;;;;5081387;28;20162;-53
2021/12/08 02:06:33;;;;;;;13.23;6.35;;;3.10;99.90;;;;;;5080419;28;20056;-51
2021/12/08 02:08:59;;;;;;;12.52;5.72;;;3.10;99.90;;;;;;5081388;28;20445;-49
2021/12/08 02:11:25;;;;;;;11.45;5.97;;;3.20;99.90;;;;;;5081550;28;20083;-50
2021/12/08 02:13:53;;;;;;;15.10;6.20;;;3.20;99.90;;;;;;5080592;28;20075;-53
2021/12/08 02:16:19;;;;;;;13.57;5.95;;;3.20;99.90;;;;;;5081263;28;20044;-50
2021/12/08 02:18:48;;;;;;;11.38;6.45;;;3.10;99.90;;;;;;5079836;28;20535;-48
2021/12/08 02:21:25;;;;;;;13.75;6.07;;;3.20;99.90;;;;;;5081069;28;20092;-52
2021/12/08 02:23:52;;;;;;;13.07;6.30;;;3.20;99.90;;;;;;5080291;28;20380;-52
2021/12/08 02:26:18;;;;;;;13.07;6.07;;;3.20;99.90;;;;;;5080766;28;20036;-52
2021/12/08 02:28:45;;;;;;;12.57;6.82;;;3.20;99.90;;;;;;5081357;28;20051;-52
2021/12/08 02:31:15;;;;;;;11.70;6.68;;;3.10;99.90;;;;;;5080430;28;20051;-51
2021/12/08 02:49:49;;;;;;;13.35;6.70;;;3.30;99.90;;;;;;5081039;28;20076;-51
2021/12/08 02:52:15;;;;;;;11.73;6.75;;;3.30;99.90;;;;;;5095070;28;20084;-53
2021/12/08 02:54:46;;;;;;;15.15;6.95;;;3.30;99.90;;;;;;5101022;28;20136;-51
2021/12/08 02:57:13;;;;;;;13.57;6.13;;;3.30;99.90;;;;;;5100571;28;20613;-52
2021/12/08 02:59:41;;;;;;;11.60;6.57;;;3.30;99.90;;;;;;5099424;28;20043;-50
2021/12/08 03:02:07;;;;;;;11.82;7.13;;;3.30;99.90;;;;;;5101297;28;20087;-50
2021/12/08 03:04:33;;;;;;;12.93;5.93;;;3.30;99.90;;;;;;5100422;28;20105;-51
2021/12/08 03:06:59;;;;;;;12.93;7.43;;;3.40;99.90;;;;;;5100222;28;20400;-52
2021/12/08 03:09:26;;;;;;;13.15;6.88;;;3.30;99.90;;;;;;5098836;28;20072;-52
2021/12/08 03:11:54;;;;;;;12.95;7.35;;;3.40;99.90;;;;;;5100588;28;20058;-52
2021/12/08 03:14:20;;;;;;;14.32;7.15;;;3.40;99.90;;;;;;5100013;28;20051;-52
2021/12/08 03:16:51;;;;;;;14.65;7.22;;;3.40;99.90;;;;;;5100482;28;20148;-51
2021/12/08 03:19:21;;;;;;;11.77;7.05;;;3.40;99.90;;;;;;5100813;28;20397;-52
2021/12/08 03:21:47;;;;;;;15.02;7.70;;;3.40;99.90;;;;;;5100239;28;20047;-52
2021/12/08 03:24:28;;;;;;;13.00;7.60;;;3.40;99.90;;;;;;5100462;28;20563;-52
2021/12/08 03:29:50;;;;;;;17.05;8.73;;;3.50;99.90;;;;;;5100128;28;20079;-50
2021/12/08 03:32:24;;;;;;;12.82;8.18;;;3.50;99.90;;;;;;5100521;28;20086;-53
2021/12/08 03:34:53;;;;;;;15.05;8.40;;;3.50;99.90;;;;;;5099670;28;20047;-51
2021/12/08 03:37:25;;;;;;;15.13;9.30;;;3.50;99.90;;;;;;5100079;28;20077;-53
2021/12/08 03:39:51;;;;;;;15.10;8.23;;;3.50;99.90;;;;;;5099659;28;20066;-51
2021/12/08 03:42:20;;;;;;;16.33;9.40;;;3.50;99.90;;;;;;5099854;28;20048;-50
2021/12/08 03:44:47;;;;;;;16.70;9.55;;;3.50;99.90;;;;;;5099757;28;20056;-52
2021/12/08 03:47:17;;;;;;;13.50;9.63;;;3.50;99.90;;;;;;5099796;28;20068;-53
2021/12/08 03:49:46;;;;;;;15.60;9.27;;;3.50;99.90;;;;;;5100142;28;20040;-53
2021/12/08 03:52:12;;;;;;;18.23;10.32;;;3.50;99.90;;;;;;5084626;28;20045;-52
2021/12/08 03:54:38;;;;;;;17.05;10.65;;;3.60;99.90;;;;;;5079359;28;20101;-51
2021/12/08 03:57:05;;;;;;;18.92;11.32;;;3.60;99.90;;;;;;5079141;28;20504;-52
2021/12/08 03:59:31;;;;;;;20.40;11.00;;;3.70;99.90;;;;;;5079431;28;20068;-53
2021/12/08 04:01:56;;;;;;;17.25;10.23;;;3.70;99.90;;;;;;5079558;28;20044;-53
2021/12/08 04:04:27;;;;;;;16.30;11.05;;;3.70;99.90;;;;;;5078906;28;20040;-53
2021/12/08 04:06:53;;;;;;;17.77;11.75;;;3.70;99.90;;;;;;5079523;28;20080;-54
2021/12/08 04:09:36;;;;;;;20.23;11.98;;;3.70;99.90;;;;;;5077784;28;20043;-52
2021/12/08 04:12:01;;;;;;;;;;;3.70;99.90;;;;;;5078574;28;20045;-52
2021/12/08 04:14:31;;;;;;;18.33;12.00;;;3.70;99.90;;;;;;5078658;28;19921;-53
2021/12/08 04:17:06;;;;;;;17.98;12.48;;;3.70;99.90;;;;;;5078981;28;20134;-54
2021/12/08 04:19:32;;;;;;;20.15;12.13;;;3.70;99.90;;;;;;5078401;28;20075;-54
2021/12/08 04:22:02;;;;;;;22.70;13.38;;;3.80;99.90;;;;;;5078649;28;20048;-54
2021/12/08 04:24:28;;;;;;;21.95;12.98;;;3.80;99.90;;;;;;5079024;28;20088;-54
2021/12/08 04:27:08;;;;;;;20.70;13.38;;;3.80;99.90;;;;;;5078554;28;20041;-54
2021/12/08 04:29:39;;;;;;;19.55;12.95;;;3.80;99.90;;;;;;5078591;28;20041;-54
2021/12/08 04:32:06;;;;;;;19.77;13.50;;;3.80;99.90;;;;;;5079041;28;20055;-54
2021/12/08 04:34:37;;;;;;;19.13;12.93;;;3.80;99.90;;;;;;5078357;28;20058;-53
2021/12/08 04:37:10;;;;;;;22.10;14.18;;;4.30;99.90;;;;;;5078780;28;20047;-53
2021/12/08 04:39:49;;;;;;;19.63;13.32;;;3.80;99.90;;;;;;5078133;28;20037;-54
2021/12/08 04:42:20;;;;;;;20.67;13.18;;;3.90;99.90;;;;;;5078825;28;20036;-51
2021/12/08 04:44:53;;;;;;;18.67;13.93;;;3.90;99.90;;;;;;5078420;28;20056;-55
2021/12/08 04:47:33;;;;;;;20.85;14.38;;;3.90;99.90;;;;;;5078611;28;20056;-53
2021/12/08 05:06:39;;;;;;;24.25;13.57;;;4.00;99.90;;;;;;5099050;28;20112;-52
2021/12/08 05:09:23;;;;;;;17.48;12.98;;;4.00;99.90;;;;;;5097954;28;20044;-51
2021/12/08 05:12:01;;;;;;;22.92;13.50;;;4.00;99.90;;;;;;5098455;28;20093;-55
2021/12/08 05:14:38;;;;;;;20.10;12.82;;;4.00;99.90;;;;;;5098313;28;20056;-54
2021/12/08 05:17:11;;;;;;;22.88;14.20;;;4.00;99.90;;;;;;5098321;28;20051;-55
2021/12/08 05:19:39;;;;;;;21.33;13.45;;;4.10;99.90;;;;;;5098691;28;20039;-53
2021/12/08 05:22:16;;;;;;;22.75;13.98;;;4.10;99.90;;;;;;5096775;28;20040;-51
2021/12/08 05:24:47;;;;;;;24.10;14.57;;;4.10;99.90;;;;;;5098380;28;20043;-51
2021/12/08 05:27:21;;;;;;;22.35;13.45;;;4.10;99.90;;;;;;5096969;28;20105;-51
2021/12/08 05:29:53;;;;;;;21.58;13.23;;;4.10;99.90;;;;;;5099389;28;20050;-52
2021/12/08 05:32:20;;;;;;;20.50;14.05;;;4.20;99.90;;;;;;5103026;28;20040;-51
2021/12/08 05:34:47;;;;;;;23.08;13.88;;;4.20;99.90;;;;;;5102170;28;20119;-52
2021/12/08 05:37:16;;;;;;;17.85;11.85;;;4.30;99.90;;;;;;5102686;28;20150;-52
2021/12/08 05:39:42;;;;;;;25.15;15.15;;;4.30;99.90;;;;;;5101928;28;20036;-52
2021/12/08 05:42:13;;;;;;;22.48;12.77;;;4.30;99.90;;;;;;5102332;28;20557;-53
2021/12/08 05:44:41;;;;;;;25.52;13.93;;;4.40;99.90;;;;;;5102021;28;20048;-52
2021/12/08 05:47:12;;;;;;;18.55;12.52;;;4.40;99.90;;;;;;5100599;28;20082;-49
2021/12/08 05:49:38;;;;;;;18.95;12.00;;;4.40;99.90;;;;;;5102529;28;20044;-53
2021/12/08 05:52:05;;;;;;;23.48;13.75;;;4.50;99.90;;;;;;5088167;28;20059;-52
2021/12/08 05:54:33;;;;;;;17.75;11.55;;;4.40;99.90;;;;;;5081762;28;20098;-54
2021/12/08 05:57:17;;;;;;;23.30;13.95;;;4.50;99.90;;;;;;5079890;28;20044;-52
2021/12/08 05:59:45;;;;;;;18.65;11.35;;;4.50;99.90;;;;;;5081366;28;20040;-53
2021/12/08 06:02:19;;;;;;;17.10;10.93;;;4.50;99.90;;;;;;5082262;28;20037;-54
2021/12/08 06:04:45;;;;;;;21.13;11.48;;;4.50;99.90;;;;;;5080972;28;20045;-53
2021/12/08 06:07:12;;;;;;;19.40;10.43;;;4.60;99.90;;;;;;5081693;28;20076;-53
2021/12/08 06:09:38;;;;;;;19.83;11.23;;;4.60;99.90;;;;;;5080734;28;20789;-52
2021/12/08 06:12:06;;;;;;;16.90;10.57;;;4.60;99.90;;;;;;5081266;28;20041;-52
2021/12/08 06:14:33;;;;;;;18.75;11.57;;;4.60;99.90;;;;;;5081233;28;20048;-53
2021/12/08 06:17:27;;;;;;;18.60;11.38;;;4.60;99.90;;;;;;5081124;28;20070;-49
2021/12/08 06:19:53;;;;;;;17.88;11.00;;;4.70;99.90;;;;;;5078885;28;20090;-50
2021/12/08 06:22:21;;;;;;;22.33;11.40;;;4.70;99.90;;;;;;5080923;28;20047;-51
2021/12/08 06:24:47;;;;;;;17.40;10.50;;;4.70;99.90;;;;;;5081214;28;20045;-53
2021/12/08 06:27:13;;;;;;;19.38;10.70;;;4.70;99.90;;;;;;5081046;28;20064;-50
2021/12/08 06:29:42;;;;;;;17.35;10.60;;;4.70;99.90;;;;;;5081085;28;20757;-51
2021/12/08 06:32:10;;;;;;;16.65;10.82;;;4.70;99.90;;;;;;5081496;28;20053;-51
2021/12/08 06:34:39;;;;;;;21.52;10.88;;;4.70;99.90;;;;;;5079272;28;20530;-50
2021/12/08 06:37:09;;;;;;;18.85;11.13;;;4.70;99.90;;;;;;5081001;28;20047;-54
2021/12/08 06:39:46;;;;;;;19.95;10.40;;;4.70;99.90;;;;;;5080420;28;20056;-49
2021/12/08 06:42:18;;;;;;;18.98;9.65;;;4.60;99.90;;;;;;5079754;28;20247;-53
2021/12/08 06:44:46;;;;;;;19.20;9.98;;;4.60;99.90;;;;;;5080665;28;20052;-51
2021/12/08 06:47:17;;;;;;;19.15;9.75;;;4.50;99.90;;;;;;5080428;28;20059;-49
2021/12/08 06:49:45;;;;;;;16.42;9.25;;;4.50;99.90;;;;;;5080992;28;20040;-49
2021/12/08 06:52:17;;;;;;;18.98;9.88;;;4.50;99.90;;;;;;5094785;28;20074;-53
2021/12/08 06:55:18;;;;;;;15.10;9.55;;;4.50;99.90;;;;;;5100896;28;20051;-53
2021/12/08 06:57:56;;;;;;;20.08;10.50;;;4.40;99.90;;;;;;5101344;28;20051;-50
2021/12/08 07:01:00;;;;;;;14.23;8.65;;;4.40;99.90;;;;;;5100422;28;20058;-52
2021/12/08 07:03:44;;;;;;;16.92;8.48;;;4.40;99.90;;;;;;5100860;28;20044;-52
2021/12/08 07:06:42;;;;;;;19.73;9.45;;;4.40;99.90;;;;;;5099297;28;20063;-51
2021/12/08 07:09:23;;;;;;;13.52;8.80;;;4.40;99.90;;;;;;5100395;28;20181;-52
2021/12/08 07:11:53;;;;;;;18.23;9.50;;;4.30;99.90;;;;;;5100556;28;20040;-52
2021/12/08 07:14:20;;;;;;;17.27;8.75;;;4.40;99.90;;;;;;5100171;28;20040;-52
2021/12/08 07:16:50;;;;;;;18.45;9.18;;;4.40;99.90;;;;;;5100035;28;20047;-50
2021/12/08 07:19:35;;;;;;;17.80;8.63;;;4.30;99.90;;;;;;5100933;28;20496;-49
2021/12/08 07:22:06;;;;;;;16.08;8.80;;;4.40;99.90;;;;;;5099797;28;20036;-51
2021/12/08 07:24:36;;;;;;;15.60;8.30;;;4.30;99.90;;;;;;5100421;28;20051;-52
2021/12/08 07:27:07;;;;;;;19.67;8.57;;;4.20;99.90;;;;;;5099781;28;20033;-52
2021/12/08 07:29:39;;;;;;;14.73;8.95;;;4.20;99.90;;;;;;5099991;28;20051;-50
2021/12/08 07:32:12;;;;;;;15.40;7.97;;;4.20;99.90;;;;;;5100583;28;20044;-50
2021/12/08 07:34:37;;;;;;;14.77;7.47;;;4.20;99.90;;;;;;5099566;28;20138;-49
2021/12/08 07:37:28;;;;;;;17.33;8.55;;;4.10;99.90;;;;;;5100134;28;20063;-51
2021/12/08 07:39:59;;;;;;;13.23;7.38;;;4.20;99.90;;;;;;5092390;28;20052;-52
2021/12/08 07:42:33;;;;;;;17.42;8.85;;;4.20;99.90;;;;;;5099961;28;20519;-50
2021/12/08 07:45:03;;;;;;;17.60;8.95;;;4.20;99.90;;;;;;5100156;28;20052;-53
2021/12/08 07:47:30;;;;;;;18.67;8.05;;;4.20;99.90;;;;;;5099448;28;20606;-51
2021/12/08 07:50:21;;;;;;;17.50;8.23;;;4.20;99.90;;;;;;5100008;28;20047;-50
2021/12/08 07:52:49;;;;;;;12.70;6.88;;;4.20;99.90;;;;;;5068305;28;20097;-51
2021/12/08 07:55:30;;;;;;;16.02;7.03;;;4.20;99.90;;;;;;5079341;28;20079;-52
2021/12/08 07:57:56;;;;;;;13.25;6.90;;;4.20;99.90;;;;;;5079861;28;20496;-51
2021/12/08 08:00:29;;;;;;;13.77;6.40;;;4.20;99.90;;;;;;5079118;28;20544;-53
2021/12/08 08:02:56;;;;;;;13.57;6.40;;;4.20;99.90;;;;;;5079420;28;20102;-50
2021/12/08 08:05:28;;;;;;;11.98;5.35;;;4.20;99.90;;;;;;5078839;28;20048;-52
2021/12/08 08:08:02;;;;;;;14.40;5.53;;;4.10;99.90;;;;;;5079150;28;20044;-53
2021/12/08 08:10:29;;;;;;;12.63;5.10;;;4.20;99.90;;;;;;5079416;28;20046;-53
2021/12/08 08:13:00;;;;;;;10.82;4.90;;;4.10;99.90;;;;;;5077254;28;20063;-52
2021/12/08 08:15:29;;;;;;;11.82;4.60;;;4.10;99.90;;;;;;5079133;28;20037;-51
2021/12/08 08:17:55;;;;;;;10.15;4.40;;;4.20;99.90;;;;;;5078491;28;20040;-53
2021/12/08 08:20:30;;;;;;;11.55;4.63;;;4.10;99.90;;;;;;5079213;28;20040;-53
2021/12/08 08:22:57;;;;;;;12.80;4.28;;;4.10;99.90;;;;;;5078734;28;20120;-54
2021/12/08 08:25:28;;;;;;;15.38;4.05;;;4.10;99.90;;;;;;5078722;28;20056;-54
2021/12/08 08:27:55;;;;;;;11.13;4.13;;;4.10;99.90;;;;;;5079380;28;20052;-51
2021/12/08 08:30:25;;;;;;;11.95;4.68;;;4.20;99.90;;;;;;5077072;28;20048;-50
2021/12/08 08:32:54;;;;;;;9.02;3.90;;;4.20;99.90;;;;;;5078892;28;20080;-54
2021/12/08 08:35:30;;;;;;;10.80;3.85;;;4.30;99.90;;;;;;5078154;28;20090;-52
2021/12/08 08:37:58;;;;;;;11.35;3.40;;;4.30;99.90;;;;;;5078551;28;20044;-52
2021/12/08 08:40:29;;;;;;;8.65;3.80;;;4.30;99.90;;;;;;5078938;28;20060;-53
2021/12/08 08:42:57;;;;;;;9.25;3.50;;;4.40;99.90;;;;;;5078087;28;20072;-53
2021/12/08 08:45:28;;;;;;;11.32;4.10;;;4.40;99.90;;;;;;5078925;28;20048;-53
2021/12/08 08:48:10;;;;;;;8.45;3.10;;;4.40;99.90;;;;;;5078069;28;20052;-52
2021/12/08 08:50:39;;;;;;;8.00;3.80;;;4.40;99.90;;;;;;5079877;28;20104;-50
2021/12/08 08:53:07;;;;;;;11.07;3.80;;;4.40;99.90;;;;;;5098821;28;20070;-49
2021/12/08 08:55:40;;;;;;;11.80;3.78;;;4.40;99.90;;;;;;5098776;28;20075;-52
2021/12/08 08:58:08;;;;;;;10.02;3.85;;;4.40;99.90;;;;;;5098935;28;20036;-52
2021/12/08 09:00:42;;;;;;;9.35;3.28;;;4.50;99.90;;;;;;5098207;28;20044;-52
2021/12/08 09:03:19;;;;;;;12.23;3.40;;;4.50;99.90;;;;;;5098613;28;20136;-53
2021/12/08 09:05:52;;;;;;;10.60;3.03;;;4.50;99.90;;;;;;5098002;28;20040;-53
2021/12/08 09:08:18;;;;;;;;;;;4.60;99.90;;;;;;5098848;28;20714;-53
2021/12/08 09:11:01;;;;;;;12.50;3.50;;;4.50;99.90;;;;;;5098908;28;19920;-53
2021/12/08 09:13:32;;;;;;;10.20;3.53;;;4.50;99.90;;;;;;5097696;28;20867;-54
2021/12/08 09:16:09;;;;;;;10.27;3.42;;;4.50;99.90;;;;;;5098493;28;20059;-53
2021/12/08 09:18:49;;;;;;;9.88;2.90;;;4.50;99.90;;;;;;5098180;28;20048;-54
2021/12/08 09:21:21;;;;;;;14.23;3.60;;;4.50;99.90;;;;;;5098353;28;20083;-51
2021/12/08 09:24:07;;;;;;;10.65;4.38;;;4.50;99.90;;;;;;5097406;28;20048;-53
2021/12/08 09:26:35;;;;;;;9.38;2.70;;;4.50;99.90;;;;;;5097820;28;20044;-51
2021/12/08 09:29:11;;;;;;;13.73;3.10;;;4.60;99.90;;;;;;5098513;28;20067;-54
2021/12/08 09:31:44;;;;;;;9.00;2.88;;;4.60;99.90;;;;;;5098343;28;20040;-52
2021/12/08 09:34:20;;;;;;;10.45;3.08;;;4.60;99.90;;;;;;5098002;28;20036;-51
2021/12/08 09:36:54;;;;;;;13.85;4.85;;;4.60;99.90;;;;;;5098562;28;20048;-52
2021/12/08 09:39:28;;;;;;;9.25;2.95;;;4.60;99.90;;;;;;5097856;28;20036;-50
2021/12/08 09:41:58;;;;;;;8.75;2.80;;;4.60;99.90;;;;;;5097967;28;20100;-52
2021/12/08 09:44:32;;;;;;;9.43;3.20;;;4.70;99.90;;;;;;5097819;28;20060;-50
2021/12/08 09:46:59;;;;;;;10.88;3.30;;;4.70;99.90;;;;;;5098082;28;20083;-51
2021/12/08 09:49:26;;;;;;;8.27;2.67;;;4.70;99.90;;;;;;5098513;28;20048;-52
2021/12/08 09:51:56;;;;;;;13.25;3.30;;;4.70;99.90;;;;;;5085758;28;20037;-53
2021/12/08 09:54:22;;;;;;;11.30;2.47;;;4.70;99.90;;;;;;5077761;28;20092;-51
2021/12/08 09:56:50;;;;;;;9.82;3.15;;;4.70;99.90;;;;;;5077671;28;20052;-52
2021/12/08 09:59:17;;;;;;;8.90;2.97;;;4.80;99.90;;;;;;5077711;28;20064;-54
2021/12/08 10:01:44;;;;;;;10.98;2.75;;;4.80;99.90;;;;;;5077959;28;20096;-54
2021/12/08 10:04:12;;;;;;;16.00;3.20;;;4.90;99.90;;;;;;5077620;28;20044;-50
2021/12/08 10:06:40;;;;;;;11.48;3.03;;;4.90;99.90;;;;;;5078130;28;20047;-52
2021/12/08 10:09:07;;;;;;;9.68;2.50;;;4.90;99.90;;;;;;5077238;28;20040;-53
2021/12/08 10:11:33;;;;;;;11.63;3.38;;;4.90;99.90;;;;;;5077860;28;20057;-51
2021/12/08 10:13:59;;;;;;;11.82;2.88;;;5.10;99.90;;;;;;5076941;28;20078;-52
2021/12/08 10:16:26;;;;;;;12.38;3.20;;;5.10;99.90;;;;;;5079605;28;20051;-53
2021/12/08 10:18:53;;;;;;;14.52;3.22;;;5.10;99.90;;;;;;5081472;28;20048;-51
2021/12/08 10:21:20;;;;;;;12.18;2.83;;;5.10;99.90;;;;;;5081019;28;20036;-52
2021/12/08 10:23:48;;;;;;;12.27;3.35;;;5.20;99.90;;;;;;5081564;28;20504;-53
2021/12/08 10:26:20;;;;;;;9.73;3.20;;;5.10;99.90;;;;;;5079582;28;20496;-52
2021/12/08 10:28:54;;;;;;;13.18;3.10;;;5.10;99.90;;;;;;5079874;28;20048;-53
2021/12/08 10:31:28;;;;;;;9.88;3.00;;;5.30;99.90;;;;;;5081019;28;20040;-50
2021/12/08 10:34:21;;;;;;;8.80;3.00;;;5.30;99.90;;;;;;5080779;28;20056;-53
2021/12/08 10:37:10;;;;;;;;;;;5.30;99.90;;;;;;5081686;28;20046;-52
2021/12/08 10:39:41;;;;;;;11.25;3.45;;;5.40;99.90;;;;;;5074866;28;20443;-54
2021/12/08 10:42:23;;;;;;;10.15;2.97;;;5.40;99.90;;;;;;5080936;28;20043;-53
2021/12/08 10:45:13;;;;;;;8.13;3.00;;;5.30;99.90;;;;;;5080712;28;20063;-51
2021/12/08 10:47:47;;;;;;;13.23;3.53;;;5.30;99.90;;;;;;5080247;28;20794;-53
2021/12/08 10:56:03;;;;;;;7.43;2.70;;;5.40;99.90;;;;;;5058734;28;20049;-50
2021/12/08 10:58:31;;;;;;;12.38;3.25;;;5.40;99.90;;;;;;5059560;28;20076;-52
2021/12/08 11:01:05;;;;;;;9.15;2.60;;;5.50;99.90;;;;;;5059945;28;20077;-50
2021/12/08 11:03:32;;;;;;;6.70;2.92;;;5.50;99.90;;;;;;5060302;28;20488;-49
2021/12/08 11:06:04;;;;;;;10.85;2.67;;;5.60;99.90;;;;;;5060316;28;20830;-50
2021/12/08 11:08:31;;;;;;;11.13;2.60;;;5.60;99.90;;;;;;5060146;28;20164;-49
2021/12/08 11:11:01;;;;;;;10.32;2.38;;;5.60;99.90;;;;;;5060509;28;20056;-52
2021/12/08 11:13:34;;;;;;;9.75;2.53;;;5.70;99.90;;;;;;5059645;28;20069;-51
2021/12/08 11:16:22;;;;;;;13.25;2.75;;;5.70;99.90;;;;;;5060224;28;20072;-51
2021/12/08 11:18:57;;;;;;;12.20;2.88;;;5.60;99.90;;;;;;5060383;28;20120;-52
2021/12/08 11:21:30;;;;;;;9.38;2.38;;;5.70;99.90;;;;;;5059848;28;20067;-52
2021/12/08 11:23:59;;;;;;;13.48;2.83;;;5.70;99.90;;;;;;5060317;28;20117;-51
2021/12/08 11:26:35;;;;;;;12.63;2.78;;;5.80;99.90;;;;;;5059575;28;20041;-49
2021/12/08 11:29:12;;;;;;;11.23;2.55;;;5.90;99.90;;;;;;5059531;28;20096;-51
2021/12/08 11:31:59;;;;;;;7.28;2.65;;;5.80;99.90;;;;;;5059889;28;20115;-50
2021/12/08 11:34:26;;;;;;;13.13;2.85;;;5.80;99.90;;;;;;5059429;28;20113;-51
2021/12/08 11:36:55;;;;;;;8.95;2.25;;;5.80;99.90;;;;;;5060003;28;20485;-51
2021/12/08 11:39:27;;;;;;;8.95;2.60;;;5.70;99.90;;;;;;5059372;28;20053;-52
2021/12/08 11:41:56;;;;;;;7.95;2.50;;;5.80;99.90;;;;;;5059678;28;20104;-52
2021/12/08 11:44:28;;;;;;;10.23;2.33;;;5.80;99.90;;;;;;5059223;28;20064;-52
2021/12/08 11:47:01;;;;;;;11.68;2.55;;;5.80;99.90;;;;;;5059397;28;20049;-52
2021/12/08 11:49:27;;;;;;;11.98;2.70;;;5.80;99.90;;;;;;5059758;28;20105;-49
2021/12/08 11:52:10;;;;;;;10.32;2.40;;;5.80;99.90;;;;;;5082781;28;20048;-49
2021/12/08 11:54:48;;;;;;;8.10;2.55;;;5.70;99.90;;;;;;5099763;28;20062;-53
2021/12/08 11:57:23;;;;;;;9.98;2.45;;;5.70;99.90;;;;;;5099842;28;20043;-50
2021/12/08 11:59:58;;;;;;;9.10;2.38;;;5.80;99.90;;;;;;5099388;28;20460;-51
2021/12/08 12:02:36;;;;;;;10.82;2.90;;;5.70;99.90;;;;;;5100020;28;20047;-53
2021/12/08 12:05:07;;;;;;;6.55;2.65;;;5.70;99.90;;;;;;5098984;28;20149;-53
2021/12/08 12:07:32;;;;;;;8.63;2.13;;;5.70;99.90;;;;;;5099350;28;20040;-49
2021/12/08 12:09:58;;;;;;;6.88;2.33;;;5.70;99.90;;;;;;5099402;28;20052;-51
2021/12/08 12:12:24;;;;;;;8.38;2.60;;;5.70;99.90;;;;;;5097862;28;20048;-49
2021/12/08 12:14:50;;;;;;;12.02;2.80;;;5.70;99.90;;;;;;5099339;28;20048;-49
2021/12/08 12:17:16;;;;;;;10.20;2.90;;;5.70;99.90;;;;;;5098875;28;20044;-51
2021/12/08 12:19:49;;;;;;;10.00;2.22;;;5.70;99.90;;;;;;5099420;28;20040;-49
2021/12/08 12:22:28;;;;;;;10.98;2.60;;;5.60;99.90;;;;;;5098534;28;20040;-49
2021/12/08 12:25:06;;;;;;;12.02;2.45;;;5.70;99.90;;;;;;5099185;28;20076;-49
2021/12/08 12:27:38;;;;;;;10.63;2.30;;;5.60;99.90;;;;;;5098229;28;20040;-52
2021/12/08 12:30:21;;;;;;;8.75;2.50;;;5.60;99.90;;;;;;5098957;28;20043;-50
2021/12/08 12:32:54;;;;;;;10.98;2.60;;;5.60;99.90;;;;;;5097898;28;20044;-52
2021/12/08 12:35:21;;;;;;;11.40;2.50;;;5.60;99.90;;;;;;5097065;28;20043;-52
2021/12/08 12:37:50;;;;;;;9.30;2.97;;;5.70;99.90;;;;;;5099056;28;20036;-53
2021/12/08 12:40:18;;;;;;;13.63;2.85;;;5.60;99.90;;;;;;5096815;28;20036;-52
2021/12/08 12:42:56;;;;;;;9.70;2.40;;;5.60;99.90;;;;;;5098398;28;20048;-51
2021/12/08 12:45:24;;;;;;;11.00;2.60;;;5.60;99.90;;;;;;5099153;28;20567;-52
2021/12/08 12:48:19;;;;;;;8.88;2.58;;;5.70;99.90;;;;;;5098147;28;20048;-49
2021/12/08 12:50:52;;;;;;;7.50;2.22;;;5.70;99.90;;;;;;5095744;28;20044;-52
2021/12/08 12:53:37;;;;;;;10.88;2.75;;;5.70;99.90;;;;;;5078687;28;20074;-53
2021/12/08 12:56:03;;;;;;;13.73;4.47;;;5.60;99.90;;;;;;5078103;28;20057;-52
2021/12/08 12:58:49;;;;;;;8.13;2.60;;;5.70;99.90;;;;;;5078673;28;20486;-52
2021/12/08 13:01:18;;;;;;;10.52;3.08;;;5.70;99.90;;;;;;5078420;28;20041;-52
2021/12/08 13:03:53;;;;;;;9.57;3.13;;;5.60;99.90;;;;;;5078302;28;20045;-52
2021/12/08 13:06:40;;;;;;;9.48;3.17;;;5.70;99.90;;;;;;5078516;28;20055;-49
2021/12/08 13:09:08;;;;;;;9.57;3.60;;;5.70;99.90;;;;;;5078080;28;20060;-51
2021/12/08 13:12:13;;;;;;;12.93;4.55;;;5.60;99.90;;;;;;5078243;28;20048;-49
2021/12/08 13:14:32;;;;;;;13.13;3.60;;;5.60;99.90;;;;;;5075132;28;20057;-50
2021/12/08 13:17:21;;;;;;;11.23;3.55;;;5.60;99.90;;;;;;5077777;28;20063;-51
2021/12/08 13:19:59;;;;;;;8.30;3.90;;;5.60;99.90;;;;;;5078584;28;20037;-54
2021/12/08 13:22:48;;;;;;;11.23;3.35;;;5.60;99.90;;;;;;5076174;28;20051;-53
2021/12/08 13:25:48;;;;;;;8.98;4.00;;;5.60;99.90;;;;;;5078151;28;20234;-50
2021/12/08 13:31:24;;;;;;;8.98;3.67;;;5.60;99.90;;;;;;5077970;28;20052;-52
2021/12/08 13:34:04;;;;;;;14.63;3.85;;;5.60;99.90;;;;;;5076776;28;20059;-52
2021/12/08 13:36:47;;;;;;;9.30;3.47;;;5.60;99.90;;;;;;5078448;28;20033;-53
2021/12/08 13:39:29;;;;;;;10.15;3.90;;;5.60;99.90;;;;;;5077611;28;20053;-51
2021/12/08 13:41:59;;;;;;;7.55;3.35;;;5.60;99.90;;;;;;5077834;28;20040;-52
2021/12/08 13:44:36;;;;;;;13.45;3.60;;;5.50;99.90;;;;;;5077818;28;20040;-53
2021/12/08 13:47:25;;;;;;;11.93;3.50;;;5.60;99.90;;;;;;5077555;28;20126;-53
2021/12/08 13:49:54;;;;;;;9.32;3.72;;;5.70;99.90;;;;;;5078140;28;20125;-53
2021/12/08 13:52:26;;;;;;;8.07;3.13;;;5.70;99.90;;;;;;5097021;28;20047;-51
2021/12/08 13:54:55;;;;;;;9.27;3.17;;;5.70;99.90;;;;;;5101950;28;20044;-52
2021/12/08 13:57:40;;;;;;;11.63;3.95;;;5.60;99.90;;;;;;5102199;28;20044;-48